Observation data for Plainview on 07/11/2018      Previous  Date       Current Mesonet Observations  Soil Data  Daily Summary Page  Observations in Plain Language
KPVS 110500Z 17007KT 24/17 A3015 RMK A01 T02410165  RH  064%=      5-min Rain = 0
KPVS 110505Z 17007KT 24/17 A3015 RMK A01 T02400165  RH  064%=      5-min Rain = 0
KPVS 110510Z 17008KT 24/17 A3015 RMK A01 T02390165  RH  065%=      5-min Rain = 0
KPVS 110515Z 17007KT 24/17 A3015 RMK A01 T02380165  RH  065%=      5-min Rain = 0
KPVS 110520Z 17007KT 24/17 A3015 RMK A01 T02380165  RH  065%=      5-min Rain = 0
KPVS 110525Z 17006KT 24/17 A3015 RMK A01 T02370165  RH  065%=      5-min Rain = 0
KPVS 110530Z 17007KT 24/17 A3015 RMK A01 T02360165  RH  066%=      5-min Rain = 0
KPVS 110535Z 17007KT 24/17 A3015 RMK A01 T02350165  RH  066%=      5-min Rain = 0
KPVS 110540Z 17007KT 23/17 A3015 RMK A01 T02340165  RH  066%=      5-min Rain = 0
KPVS 110545Z 17006KT 23/17 A3015 RMK A01 T02330165  RH  067%=      5-min Rain = 0
KPVS 110550Z 17006KT 23/17 A3015 RMK A01 T02320165  RH  068%=      5-min Rain = 0
KPVS 110555Z 17006KT 23/17 A3015 RMK A01 T02320165  RH  068%=      5-min Rain = 0
KPVS 110600Z 17006KT 23/17 A3015 RMK A01 T02310166  RH  068%=      5-min Rain = 0
KPVS 110605Z 17006KT 23/17 A3015 RMK A01 T02300166  RH  068%=      5-min Rain = 0
KPVS 110610Z 16005KT 23/17 A3015 RMK A01 T02300166  RH  069%=      5-min Rain = 0
KPVS 110615Z 16005KT 23/17 A3015 RMK A01 T02290166  RH  069%=      5-min Rain = 0
KPVS 110620Z 17005KT 23/17 A3015 RMK A01 T02290166  RH  069%=      5-min Rain = 0
KPVS 110625Z 17005KT 23/17 A3015 RMK A01 T02270166  RH  070%=      5-min Rain = 0
KPVS 110630Z 17005KT 23/17 A3015 RMK A01 T02270166  RH  070%=      5-min Rain = 0
KPVS 110635Z 17005KT 23/17 A3015 RMK A01 T02260166  RH  071%=      5-min Rain = 0
KPVS 110640Z 17006KT 23/17 A3015 RMK A01 T02260166  RH  071%=      5-min Rain = 0
KPVS 110645Z 17006KT 23/17 A3015 RMK A01 T02260166  RH  071%=      5-min Rain = 0
KPVS 110650Z 17006KT 23/17 A3015 RMK A01 T02260167  RH  071%=      5-min Rain = 0
KPVS 110655Z 17005KT 23/17 A3015 RMK A01 T02260166  RH  071%=      5-min Rain = 0
KPVS 110700Z 17005KT 23/17 A3015 RMK A01 T02260166  RH  071%=      5-min Rain = 0
KPVS 110705Z 18006KT 23/17 A3015 RMK A01 T02250166  RH  071%=      5-min Rain = 0
KPVS 110710Z 17005KT 23/17 A3015 RMK A01 T02250166  RH  071%=      5-min Rain = 0
KPVS 110715Z 17006KT 23/17 A3015 RMK A01 T02250166  RH  071%=      5-min Rain = 0
KPVS 110720Z 17006KT 23/17 A3015 RMK A01 T02250166  RH  071%=      5-min Rain = 0
KPVS 110725Z 17007KT 22/17 A3015 RMK A01 T02240166  RH  071%=      5-min Rain = 0
KPVS 110730Z 17006KT 22/17 A3015 RMK A01 T02240166  RH  072%=      5-min Rain = 0
KPVS 110735Z 17005KT 22/17 A3015 RMK A01 T02230166  RH  072%=      5-min Rain = 0
KPVS 110740Z 17006KT 22/17 A3015 RMK A01 T02220166  RH  072%=      5-min Rain = 0
KPVS 110745Z 17007KT 22/17 A3015 RMK A01 T02220166  RH  072%=      5-min Rain = 0
KPVS 110750Z 17007KT 22/17 A3015 RMK A01 T02220166  RH  072%=      5-min Rain = 0
KPVS 110755Z 18007KT 22/17 A3015 RMK A01 T02230167  RH  072%=      5-min Rain = 0
KPVS 110800Z 18007KT 22/17 A3015 RMK A01 T02240167  RH  072%=      5-min Rain = 0
KPVS 110805Z 18007KT 23/17 A3015 RMK A01 T02260167  RH  071%=      5-min Rain = 0
KPVS 110810Z 18006KT 23/17 A3015 RMK A01 T02260167  RH  071%=      5-min Rain = 0
KPVS 110815Z 18006KT 23/17 A3015 RMK A01 T02260167  RH  071%=      5-min Rain = 0
KPVS 110820Z 18006KT 23/17 A3015 RMK A01 T02250167  RH  071%=      5-min Rain = 0
KPVS 110825Z 17007KT 22/17 A3014 RMK A01 T02230167  RH  072%=      5-min Rain = 0
KPVS 110830Z 18007KT 22/17 A3014 RMK A01 T02220167  RH  073%=      5-min Rain = 0
KPVS 110835Z 18008KT 22/17 A3014 RMK A01 T02220168  RH  073%=      5-min Rain = 0
KPVS 110840Z 18009KT 22/17 A3014 RMK A01 T02240168  RH  072%=      5-min Rain = 0
KPVS 110845Z 18008KT 23/17 A3014 RMK A01 T02260169  RH  072%=      5-min Rain = 0
KPVS 110850Z 18008KT 23/17 A3014 RMK A01 T02260169  RH  072%=      5-min Rain = 0
KPVS 110855Z 18008KT 22/17 A3014 RMK A01 T02240169  RH  073%=      5-min Rain = 0
KPVS 110900Z 18007KT 22/17 A3014 RMK A01 T02230169  RH  073%=      5-min Rain = 0
KPVS 110905Z 18007KT 22/17 A3015 RMK A01 T02220169  RH  074%=      5-min Rain = 0
KPVS 110910Z 19007KT 22/17 A3015 RMK A01 T02220170  RH  074%=      5-min Rain = 0
KPVS 110915Z 19007KT 22/17 A3015 RMK A01 T02210170  RH  074%=      5-min Rain = 0
KPVS 110920Z 18006KT 22/17 A3015 RMK A01 T02210170  RH  075%=      5-min Rain = 0
KPVS 110925Z 18005KT 22/17 A3015 RMK A01 T02200170  RH  075%=      5-min Rain = 0
KPVS 110930Z 17006KT 22/17 A3015 RMK A01 T02200170  RH  075%=      5-min Rain = 0
KPVS 110935Z 17006KT 22/17 A3015 RMK A01 T02200171  RH  076%=      5-min Rain = 0
KPVS 110940Z 16005KT 22/17 A3014 RMK A01 T02190171  RH  076%=      5-min Rain = 0
KPVS 110945Z 17005KT 22/17 A3014 RMK A01 T02170171  RH  077%=      5-min Rain = 0
KPVS 110950Z 17005KT 22/17 A3014 RMK A01 T02160170  RH  077%=      5-min Rain = 0
KPVS 110955Z 17005KT 21/17 A3014 RMK A01 T02140170  RH  078%=      5-min Rain = 0
KPVS 111000Z 17004KT 21/17 A3014 RMK A01 T02130169  RH  078%=      5-min Rain = 0
KPVS 111005Z 18004KT 21/17 A3014 RMK A01 T02130169  RH  078%=      5-min Rain = 0
KPVS 111010Z 19004KT 21/17 A3014 RMK A01 T02120169  RH  078%=      5-min Rain = 0
KPVS 111015Z 19003KT 21/17 A3014 RMK A01 T02120169  RH  078%=      5-min Rain = 0
KPVS 111020Z 20003KT 21/17 A3014 RMK A01 T02110169  RH  079%=      5-min Rain = 0
KPVS 111025Z 22002KT 21/17 A3014 RMK A01 T02110168  RH  078%=      5-min Rain = 0
KPVS 111030Z 24002KT 21/17 A3014 RMK A01 T02070166  RH  079%=      5-min Rain = 0
KPVS 111035Z 24002KT 20/17 A3014 RMK A01 T02030165  RH  081%=      5-min Rain = 0
KPVS 111040Z 22002KT 20/17 A3014 RMK A01 T02000165  RH  082%=      5-min Rain = 0
KPVS 111045Z 21002KT 20/17 A3014 RMK A01 T01980165  RH  083%=      5-min Rain = 0
KPVS 111050Z 20002KT 20/17 A3014 RMK A01 T01960165  RH  084%=      5-min Rain = 0
KPVS 111055Z 20002KT 20/17 A3014 RMK A01 T01960166  RH  085%=      5-min Rain = 0
KPVS 111100Z 21003KT 20/17 A3014 RMK A01 T01950166  RH  085%=      5-min Rain = 0
KPVS 111105Z 21002KT 20/17 A3014 RMK A01 T01950166  RH  085%=      5-min Rain = 0
KPVS 111110Z 20001KT 20/17 A3014 RMK A01 T01950167  RH  086%=      5-min Rain = 0
KPVS 111115Z 21002KT 20/17 A3014 RMK A01 T01960168  RH  086%=      5-min Rain = 0
KPVS 111120Z 22002KT 20/17 A3014 RMK A01 T01970168  RH  085%=      5-min Rain = 0
KPVS 111125Z 21002KT 20/17 A3014 RMK A01 T01960166  RH  085%=      5-min Rain = 0
KPVS 111130Z 20003KT 20/17 A3014 RMK A01 T01960167  RH  086%=      5-min Rain = 0
KPVS 111135Z 20003KT 20/17 A3014 RMK A01 T01970167  RH  085%=      5-min Rain = 0
KPVS 111140Z 19003KT 20/17 A3014 RMK A01 T01970167  RH  085%=      5-min Rain = 0
KPVS 111145Z 17002KT 20/17 A3014 RMK A01 T01960166  RH  085%=      5-min Rain = 0
KPVS 111150Z 18003KT 20/17 A3015 RMK A01 T01960167  RH  085%=      5-min Rain = 0
KPVS 111155Z 19003KT 20/17 A3015 RMK A01 T01970167  RH  085%=      5-min Rain = 0
KPVS 111200Z 18003KT 20/17 A3015 RMK A01 T01980167  RH  085%=      5-min Rain = 0
KPVS 111205Z 19003KT 20/17 A3015 RMK A01 T01990168  RH  084%=      5-min Rain = 0
KPVS 111210Z 18003KT 20/17 A3015 RMK A01 T01990168  RH  084%=      5-min Rain = 0
KPVS 111215Z 17003KT 20/17 A3015 RMK A01 T01990168  RH  085%=      5-min Rain = 0
KPVS 111220Z 20003KT 20/17 A3015 RMK A01 T01990169  RH  085%=      5-min Rain = 0
KPVS 111225Z 19004KT 20/17 A3015 RMK A01 T01990169  RH  085%=      5-min Rain = 0
KPVS 111230Z 19005KT 20/17 A3015 RMK A01 T02000169  RH  084%=      5-min Rain = 0
KPVS 111235Z 19005KT 20/17 A3015 RMK A01 T02020169  RH  084%=      5-min Rain = 0
KPVS 111240Z 18005KT 20/17 A3015 RMK A01 T02030170  RH  083%=      5-min Rain = 0
KPVS 111245Z 19005KT 20/17 A3015 RMK A01 T02040169  RH  083%=      5-min Rain = 0
KPVS 111250Z 19004KT 20/17 A3015 RMK A01 T02040170  RH  083%=      5-min Rain = 0
KPVS 111255Z 19004KT 21/17 A3015 RMK A01 T02050170  RH  082%=      5-min Rain = 0
KPVS 111300Z 19003KT 21/17 A3015 RMK A01 T02070171  RH  081%=      5-min Rain = 0
KPVS 111305Z 19003KT 21/17 A3015 RMK A01 T02090170  RH  081%=      5-min Rain = 0
KPVS 111310Z 19003KT 21/17 A3015 RMK A01 T02100170  RH  079%=      5-min Rain = 0
KPVS 111315Z 20005KT 21/17 A3015 RMK A01 T02120169  RH  078%=      5-min Rain = 0
KPVS 111320Z 19005KT 21/17 A3015 RMK A01 T02140168  RH  077%=      5-min Rain = 0
KPVS 111325Z 18004KT 22/17 A3015 RMK A01 T02170169  RH  076%=      5-min Rain = 0
KPVS 111330Z 18004KT 22/17 A3015 RMK A01 T02190170  RH  075%=      5-min Rain = 0
KPVS 111335Z 17005KT 22/17 A3015 RMK A01 T02230171  RH  074%=      5-min Rain = 0
KPVS 111340Z 18006KT 23/17 A3015 RMK A01 T02270170  RH  072%=      5-min Rain = 0
KPVS 111345Z 18006KT 23/17 A3015 RMK A01 T02320170  RH  070%=      5-min Rain = 0
KPVS 111350Z 19008G14KT 23/17 A3016 RMK A01 T02330168  RH  068%=      5-min Rain = 0
KPVS 111355Z 19008KT 23/17 A3016 RMK A01 T02340167  RH  068%=      5-min Rain = 0
KPVS 111400Z 19009KT 24/17 A3016 RMK A01 T02360167  RH  067%=      5-min Rain = 0
KPVS 111405Z 19010KT 24/17 A3016 RMK A01 T02400166  RH  065%=      5-min Rain = 0
KPVS 111410Z 20009KT 24/16 A3016 RMK A01 T02430163  RH  062%=      5-min Rain = 0
KPVS 111415Z 19011KT 24/16 A3016 RMK A01 T02440162  RH  062%=      5-min Rain = 0
KPVS 111420Z 20010KT 24/16 A3016 RMK A01 T02440162  RH  061%=      5-min Rain = 0
KPVS 111425Z 19010KT 25/16 A3016 RMK A01 T02450163  RH  062%=      5-min Rain = 0
KPVS 111430Z 19009KT 25/16 A3016 RMK A01 T02460163  RH  061%=      5-min Rain = 0
KPVS 111435Z 19009KT 25/16 A3016 RMK A01 T02480163  RH  060%=      5-min Rain = 0
KPVS 111440Z 19010KT 25/16 A3016 RMK A01 T02520161  RH  058%=      5-min Rain = 0
KPVS 111445Z 19009G14KT 26/16 A3016 RMK A01 T02550161  RH  057%=      5-min Rain = 0
KPVS 111450Z 20008G14KT 26/16 A3016 RMK A01 T02570161  RH  056%=      5-min Rain = 0
KPVS 111455Z 20008G13KT 26/16 A3016 RMK A01 T02570160  RH  056%=      5-min Rain = 0
KPVS 111500Z 20009KT 26/16 A3016 RMK A01 T02580159  RH  056%=      5-min Rain = 0
KPVS 111505Z 20009KT 26/16 A3016 RMK A01 T02580159  RH  056%=      5-min Rain = 0
KPVS 111510Z 20010KT 26/16 A3016 RMK A01 T02590159  RH  055%=      5-min Rain = 0
KPVS 111515Z 19009KT 26/16 A3017 RMK A01 T02610160  RH  055%=      5-min Rain = 0
KPVS 111520Z 19009KT 26/16 A3016 RMK A01 T02620160  RH  055%=      5-min Rain = 0
KPVS 111525Z 19010KT 27/16 A3016 RMK A01 T02650160  RH  054%=      5-min Rain = 0
KPVS 111530Z 20011G16KT 27/16 A3016 RMK A01 T02660158  RH  052%=      5-min Rain = 0
KPVS 111535Z 21008KT 27/16 A3016 RMK A01 T02670158  RH  052%=      5-min Rain = 0
KPVS 111540Z 19009G14KT 27/16 A3016 RMK A01 T02690158  RH  052%=      5-min Rain = 0
KPVS 111545Z 21010G15KT 27/15 A3016 RMK A01 T02690151  RH  050%=      5-min Rain = 0
KPVS 111550Z 22009G14KT 27/15 A3016 RMK A01 T02680154  RH  051%=      5-min Rain = 0
KPVS 111555Z 22010KT 27/16 A3016 RMK A01 T02670156  RH  052%=      5-min Rain = 0
KPVS 111600Z 22010G15KT 27/15 A3016 RMK A01 T02660153  RH  051%=      5-min Rain = 0
KPVS 111605Z 21009KT 27/16 A3016 RMK A01 T02680155  RH  051%=      5-min Rain = 0
KPVS 111610Z 19008KT 27/15 A3016 RMK A01 T02680154  RH  051%=      5-min Rain = 0
KPVS 111615Z 19009KT 27/15 A3016 RMK A01 T02680154  RH  051%=      5-min Rain = 0
KPVS 111620Z 19008KT 27/16 A3016 RMK A01 T02720157  RH  050%=      5-min Rain = 0
KPVS 111625Z 19009KT 28/15 A3016 RMK A01 T02810152  RH  046%=      5-min Rain = 0
KPVS 111630Z 19009KT 29/15 A3016 RMK A01 T02860148  RH  044%=      5-min Rain = 0
KPVS 111635Z 20009KT 29/15 A3015 RMK A01 T02900150  RH  043%=      5-min Rain = 0
KPVS 111640Z 18009KT 29/15 A3015 RMK A01 T02910148  RH  042%=      5-min Rain = 0
KPVS 111645Z 18008KT 29/15 A3015 RMK A01 T02900145  RH  042%=      5-min Rain = 0
KPVS 111650Z 18008KT 29/15 A3015 RMK A01 T02920147  RH  042%=      5-min Rain = 0
KPVS 111655Z 16010KT 29/14 A3015 RMK A01 T02940143  RH  041%=      5-min Rain = 0
KPVS 111700Z 16010G15KT 30/15 A3015 RMK A01 T02990147  RH  041%=      5-min Rain = 0
KPVS 111705Z 19009G15KT 30/15 A3015 RMK A01 T02980148  RH  041%=      5-min Rain = 0
KPVS 111710Z 18010G18KT 30/15 A3015 RMK A01 T02950145  RH  041%=      5-min Rain = 0
KPVS 111715Z 18013G21KT 30/14 A3015 RMK A01 T02990139  RH  038%=      5-min Rain = 0
KPVS 111720Z 17012KT 30/14 A3015 RMK A01 T02990143  RH  039%=      5-min Rain = 0
KPVS 111725Z 17009G15KT 30/15 A3014 RMK A01 T03040146  RH  039%=      5-min Rain = 0
KPVS 111730Z 17010G15KT 31/14 A3014 RMK A01 T03060144  RH  038%=      5-min Rain = 0
KPVS 111735Z 16012KT 31/15 A3014 RMK A01 T03060146  RH  039%=      5-min Rain = 0
KPVS 111740Z 18010G15KT 31/14 A3014 RMK A01 T03080141  RH  037%=      5-min Rain = 0
KPVS 111745Z 18010G15KT 31/13 A3013 RMK A01 T03050133  RH  036%=      5-min Rain = 0
KPVS 111750Z 18013G24KT 31/13 A3013 RMK A01 T03090131  RH  034%=      5-min Rain = 0
KPVS 111755Z 19012G21KT 31/13 A3013 RMK A01 T03100131  RH  034%=      5-min Rain = 0
KPVS 111800Z 17014G20KT 31/13 A3013 RMK A01 T03120128  RH  033%=      5-min Rain = 0
KPVS 111805Z 17015G20KT 31/13 A3013 RMK A01 T03130127  RH  033%=      5-min Rain = 0
KPVS 111810Z 18011G18KT 31/13 A3013 RMK A01 T03110129  RH  033%=      5-min Rain = 0
KPVS 111815Z 18013G20KT 31/13 A3013 RMK A01 T03130126  RH  032%=      5-min Rain = 0
KPVS 111820Z 16014G21KT 31/13 A3013 RMK A01 T03140129  RH  033%=      5-min Rain = 0
KPVS 111825Z 16013G21KT 31/13 A3013 RMK A01 T03110134  RH  035%=      5-min Rain = 0
KPVS 111830Z 16015G21KT 31/14 A3012 RMK A01 T03110135  RH  035%=      5-min Rain = 0
KPVS 111835Z 16012G19KT 31/14 A3013 RMK A01 T03110140  RH  036%=      5-min Rain = 0
KPVS 111840Z 16012G19KT 31/14 A3012 RMK A01 T03140140  RH  036%=      5-min Rain = 0
KPVS 111845Z 17015G24KT 31/14 A3012 RMK A01 T03130140  RH  036%=      5-min Rain = 0
KPVS 111850Z 16012G18KT 31/14 A3012 RMK A01 T03140143  RH  036%=      5-min Rain = 0
KPVS 111855Z 17013G23KT 31/14 A3011 RMK A01 T03080143  RH  037%=      5-min Rain = 0
KPVS 111900Z 16013G21KT 31/15 A3011 RMK A01 T03100145  RH  038%=      5-min Rain = 0
KPVS 111905Z 17013G19KT 31/14 A3011 RMK A01 T03120144  RH  037%=      5-min Rain = 0
KPVS 111910Z 17012G19KT 31/15 A3011 RMK A01 T03130145  RH  037%=      5-min Rain = 0
KPVS 111915Z 17013G18KT 32/14 A301 RMK A01 T03160142  RH  036%=      5-min Rain = 0
KPVS 111920Z 16015G23KT 31/14 A301 RMK A01 T03120143  RH  037%=      5-min Rain = 0
KPVS 111925Z 17014G22KT 32/14 A301 RMK A01 T03170143  RH  035%=      5-min Rain = 0
KPVS 111930Z 16013G19KT 31/14 A301 RMK A01 T03110144  RH  037%=      5-min Rain = 0
KPVS 111935Z 18013G19KT 32/14 A301 RMK A01 T03190142  RH  035%=      5-min Rain = 0
KPVS 111940Z 17013G19KT 32/14 A3009 RMK A01 T03180139  RH  034%=      5-min Rain = 0
KPVS 111945Z 17012G22KT 31/14 A3009 RMK A01 T03120139  RH  036%=      5-min Rain = 0
KPVS 111950Z 19015KT 32/14 A3009 RMK A01 T03180138  RH  034%=      5-min Rain = 0
KPVS 111955Z 17011G18KT 32/14 A3009 RMK A01 T03220135  RH  033%=      5-min Rain = 0
KPVS 112000Z 17012G25KT 32/14 A3009 RMK A01 T03240138  RH  033%=      5-min Rain = 0
KPVS 112005Z 17012KT 32/14 A3009 RMK A01 T03230138  RH  033%=      5-min Rain = 0
KPVS 112010Z 17014G22KT 32/14 A3009 RMK A01 T03220141  RH  034%=      5-min Rain = 0
KPVS 112015Z 17014G21KT 32/14 A3009 RMK A01 T03220140  RH  034%=      5-min Rain = 0
KPVS 112020Z 16013G19KT 32/14 A3008 RMK A01 T03230140  RH  034%=      5-min Rain = 0
KPVS 112025Z 17014G19KT 32/14 A3008 RMK A01 T03210141  RH  034%=      5-min Rain = 0
KPVS 112030Z 15013G18KT 32/14 A3008 RMK A01 T03200139  RH  034%=      5-min Rain = 0
KPVS 112035Z 16013G23KT 32/14 A3007 RMK A01 T03220139  RH  034%=      5-min Rain = 0
KPVS 112040Z 18012G19KT 33/14 A3007 RMK A01 T03310136  RH  031%=      5-min Rain = 0
KPVS 112045Z 16015KT 33/14 A3007 RMK A01 T03270137  RH  032%=      5-min Rain = 0
KPVS 112050Z 18014G22KT 33/14 A3006 RMK A01 T03250135  RH  032%=      5-min Rain = 0
KPVS 112055Z 19013G21KT 33/14 A3006 RMK A01 T03300135  RH  031%=      5-min Rain = 0
KPVS 112100Z 17013G20KT 32/13 A3006 RMK A01 T03220132  RH  032%=      5-min Rain = 0
KPVS 112105Z 18012G17KT 32/13 A3006 RMK A01 T03180130  RH  032%=      5-min Rain = 0
KPVS 112110Z 18014G21KT 33/13 A3006 RMK A01 T03250131  RH  031%=      5-min Rain = 0
KPVS 112115Z 17011KT 32/13 A3005 RMK A01 T03200129  RH  032%=      5-min Rain = 0
KPVS 112120Z 19012G19KT 32/13 A3005 RMK A01 T03200126  RH  031%=      5-min Rain = 0
KPVS 112125Z 16013G18KT 33/13 A3005 RMK A01 T03250130  RH  031%=      5-min Rain = 0
KPVS 112130Z 17012G18KT 32/13 A3005 RMK A01 T03210127  RH  031%=      5-min Rain = 0
KPVS 112135Z 17011G18KT 32/13 A3004 RMK A01 T03220127  RH  031%=      5-min Rain = 0
KPVS 112140Z 16010G16KT 33/13 A3004 RMK A01 T03250129  RH  031%=      5-min Rain = 0
KPVS 112145Z 15014G19KT 32/13 A3004 RMK A01 T03230126  RH  031%=      5-min Rain = 0
KPVS 112150Z 17012G18KT 33/13 A3004 RMK A01 T03250127  RH  031%=      5-min Rain = 0
KPVS 112155Z 17013G20KT 33/13 A3003 RMK A01 T03300128  RH  030%=      5-min Rain = 0
KPVS 112200Z 18012G17KT 33/13 A3003 RMK A01 T03300127  RH  030%=      5-min Rain = 0
KPVS 112205Z 16011G17KT 32/12 A3004 RMK A01 T03230124  RH  030%=      5-min Rain = 0
KPVS 112210Z 18014G19KT 33/13 A3003 RMK A01 T03260126  RH  030%=      5-min Rain = 0
KPVS 112215Z 17012G18KT 32/13 A3003 RMK A01 T03240125  RH  030%=      5-min Rain = 0
KPVS 112220Z 16010G20KT 32/13 A3003 RMK A01 T03230126  RH  031%=      5-min Rain = 0
KPVS 112225Z 16013G19KT 33/13 A3003 RMK A01 T03250128  RH  031%=      5-min Rain = 0
KPVS 112230Z 18014G19KT 33/12 A3003 RMK A01 T03300123  RH  029%=      5-min Rain = 0
KPVS 112235Z 16015G22KT 33/12 A3003 RMK A01 T03270121  RH  029%=      5-min Rain = 0
KPVS 112240Z 18012G18KT 33/12 A3003 RMK A01 T03260121  RH  029%=      5-min Rain = 0
KPVS 112245Z 16014KT 33/12 A3003 RMK A01 T03280121  RH  029%=      5-min Rain = 0
KPVS 112250Z 17012G18KT 33/12 A3003 RMK A01 T03250121  RH  029%=      5-min Rain = 0
KPVS 112255Z 17012G19KT 33/12 A3003 RMK A01 T03300122  RH  029%=      5-min Rain = 0
KPVS 112300Z 16012KT 33/12 A3003 RMK A01 T03290119  RH  028%=      5-min Rain = 0
KPVS 112305Z 15012G19KT 32/12 A3003 RMK A01 T03230116  RH  029%=      5-min Rain = 0
KPVS 112310Z 17012G17KT 32/12 A3003 RMK A01 T03200118  RH  030%=      5-min Rain = 0
KPVS 112315Z 18013G18KT 32/12 A3003 RMK A01 T03220121  RH  030%=      5-min Rain = 0
KPVS 112320Z 16012KT 32/12 A3003 RMK A01 T03200122  RH  030%=      5-min Rain = 0
KPVS 112325Z 16011G17KT 33/13 A3003 RMK A01 T03250126  RH  030%=      5-min Rain = 0
KPVS 112330Z 15012G18KT 32/12 A3003 RMK A01 T03220124  RH  031%=      5-min Rain = 0
KPVS 112335Z 15011G16KT 32/13 A3002 RMK A01 T03210125  RH  031%=      5-min Rain = 0
KPVS 112340Z 16013KT 32/13 A3002 RMK A01 T03220127  RH  031%=      5-min Rain = 0
KPVS 112345Z 16012G19KT 33/13 A3002 RMK A01 T03250129  RH  031%=      5-min Rain = 0
KPVS 112350Z 15011G18KT 32/13 A3002 RMK A01 T03240128  RH  031%=      5-min Rain = 0
KPVS 112355Z 15012G17KT 32/13 A3002 RMK A01 T03190125  RH  031%=      5-min Rain = 0
KPVS 120000Z 14012G17KT 32/13 A3002 RMK A01 T03180125  RH  031%=      5-min Rain = 0
KPVS 120005Z 15014G20KT 32/13 A3002 RMK A01 T03160126  RH  032%=      5-min Rain = 0
KPVS 120010Z 15012G19KT 32/13 A3003 RMK A01 T03150126  RH  032%=      5-min Rain = 0
KPVS 120015Z 15013G20KT 31/12 A3003 RMK A01 T03130123  RH  032%=      5-min Rain = 0
KPVS 120020Z 15010G16KT 31/13 A3003 RMK A01 T03110125  RH  033%=      5-min Rain = 0
KPVS 120025Z 14011G17KT 31/13 A3003 RMK A01 T03100125  RH  033%=      5-min Rain = 0
KPVS 120030Z 14008G13KT 31/13 A3003 RMK A01 T03090127  RH  033%=      5-min Rain = 0
KPVS 120035Z 14009KT 31/13 A3003 RMK A01 T03080127  RH  034%=      5-min Rain = 0
KPVS 120040Z 14008G13KT 31/13 A3003 RMK A01 T03070128  RH  034%=      5-min Rain = 0
KPVS 120045Z 15009G14KT 31/13 A3003 RMK A01 T03070128  RH  034%=      5-min Rain = 0
KPVS 120050Z 16007KT 31/13 A3003 RMK A01 T03070128  RH  034%=      5-min Rain = 0
KPVS 120055Z 16007KT 31/13 A3004 RMK A01 T03070130  RH  035%=      5-min Rain = 0
KPVS 120100Z 16012KT 31/13 A3004 RMK A01 T03070128  RH  034%=      5-min Rain = 0
KPVS 120105Z 16008KT 31/13 A3004 RMK A01 T03060129  RH  034%=      5-min Rain = 0
KPVS 120110Z 16009KT 31/13 A3004 RMK A01 T03050129  RH  035%=      5-min Rain = 0
KPVS 120115Z 16008KT 30/13 A3004 RMK A01 T03030129  RH  035%=      5-min Rain = 0
KPVS 120120Z 16007KT 30/13 A3004 RMK A01 T03010130  RH  036%=      5-min Rain = 0
KPVS 120125Z 16007KT 30/13 A3004 RMK A01 T03000130  RH  036%=      5-min Rain = 0
KPVS 120130Z 16006G11KT 30/13 A3004 RMK A01 T02990131  RH  036%=      5-min Rain = 0
KPVS 120135Z 16006KT 30/13 A3005 RMK A01 T02970132  RH  037%=      5-min Rain = 0
KPVS 120140Z 16005KT 30/13 A3005 RMK A01 T02950134  RH  038%=      5-min Rain = 0
KPVS 120145Z 16004KT 29/13 A3005 RMK A01 T02930134  RH  039%=      5-min Rain = 0
KPVS 120150Z 15005KT 29/13 A3005 RMK A01 T02920134  RH  039%=      5-min Rain = 0
KPVS 120155Z 16005KT 29/14 A3005 RMK A01 T02910135  RH  039%=      5-min Rain = 0
KPVS 120200Z 16004KT 29/14 A3005 RMK A01 T02890135  RH  040%=      5-min Rain = 0
KPVS 120205Z 14005KT 29/14 A3005 RMK A01 T02880135  RH  040%=      5-min Rain = 0
KPVS 120210Z 14006G11KT 29/14 A3005 RMK A01 T02880136  RH  040%=      5-min Rain = 0
KPVS 120215Z 14007KT 29/14 A3005 RMK A01 T02870137  RH  040%=      5-min Rain = 0
KPVS 120220Z 15007KT 29/14 A3005 RMK A01 T02870137  RH  041%=      5-min Rain = 0
KPVS 120225Z 15006KT 29/14 A3006 RMK A01 T02870137  RH  041%=      5-min Rain = 0
KPVS 120230Z 16005KT 29/14 A3007 RMK A01 T02870137  RH  041%=      5-min Rain = 0
KPVS 120235Z 16005KT 29/14 A3007 RMK A01 T02860138  RH  041%=      5-min Rain = 0
KPVS 120240Z 19004KT 29/14 A3007 RMK A01 T02850139  RH  042%=      5-min Rain = 0
KPVS 120245Z 20003KT 29/14 A3007 RMK A01 T02850140  RH  042%=      5-min Rain = 0
KPVS 120250Z 27001KT 28/14 A3008 RMK A01 T02840142  RH  043%=      5-min Rain = 0
KPVS 120255Z 12001KT 28/14 A3008 RMK A01 T02820143  RH  043%=      5-min Rain = 0
KPVS 120300Z 10001KT 28/14 A3008 RMK A01 T02810144  RH  044%=      5-min Rain = 0
KPVS 120305Z 15002KT 28/14 A3008 RMK A01 T02810142  RH  044%=      5-min Rain = 0
KPVS 120310Z 13003KT 28/14 A3008 RMK A01 T02810141  RH  043%=      5-min Rain = 0
KPVS 120315Z 14003KT 28/14 A3008 RMK A01 T02810142  RH  043%=      5-min Rain = 0
KPVS 120320Z 13004KT 28/14 A3008 RMK A01 T02800143  RH  044%=      5-min Rain = 0
KPVS 120325Z 12004KT 28/14 A3009 RMK A01 T02790144  RH  045%=      5-min Rain = 0
KPVS 120330Z 13005KT 28/14 A3009 RMK A01 T02780144  RH  045%=      5-min Rain = 0
KPVS 120335Z 13005KT 28/15 A3009 RMK A01 T02770145  RH  046%=      5-min Rain = 0
KPVS 120340Z 13005KT 28/15 A3009 RMK A01 T02750147  RH  047%=      5-min Rain = 0
KPVS 120345Z 13005KT 27/15 A3009 RMK A01 T02740147  RH  047%=      5-min Rain = 0
KPVS 120350Z 13005KT 27/15 A3009 RMK A01 T02720148  RH  048%=      5-min Rain = 0
KPVS 120355Z 13006KT 27/15 A3009 RMK A01 T02720148  RH  048%=      5-min Rain = 0
KPVS 120400Z 13006KT 27/15 A3009 RMK A01 T02700149  RH  048%=      5-min Rain = 0
KPVS 120405Z 13009G18KT 27/15 A301 RMK A01 T02700149  RH  049%=      5-min Rain = 0
KPVS 120410Z 13015G23KT 27/16 A3009 RMK A01 T02690156  RH  051%=      5-min Rain = 0
KPVS 120415Z 12015G20KT 26/16 A301 RMK A01 T02640162  RH  055%=      5-min Rain = 0
KPVS 120420Z 12012KT 26/17 A301 RMK A01 T02590166  RH  058%=      5-min Rain = 0
KPVS 120425Z 13012G17KT 26/17 A301 RMK A01 T02570166  RH  059%=      5-min Rain = 0
KPVS 120430Z 13014G20KT 26/16 A301 RMK A01 T02570164  RH  058%=      5-min Rain = 0
KPVS 120435Z 13013G20KT 26/16 A301 RMK A01 T02580162  RH  057%=      5-min Rain = 0
KPVS 120440Z 13015G21KT 26/16 A301 RMK A01 T02610159  RH  055%=      5-min Rain = 0
KPVS 120445Z 13015G21KT 26/16 A3011 RMK A01 T02600161  RH  055%=      5-min Rain = 0
KPVS 120450Z 13015G20KT 26/16 A3011 RMK A01 T02580161  RH  056%=      5-min Rain = 0
KPVS 120455Z 13014KT 26/16 A3011 RMK A01 T02610161  RH  055%=      5-min Rain = 0

Page generated in 0.0126 seconds.